Latest Weather Observations for Tatura

IDV60801

Issued at 4:32 am EST Thursday 30 June 2022 (issued every 10 minutes, with the page automatically refreshed every 10 minutes)

About weather observations | Map of weather stations | Latest weather observations for VIC | Other Formats
Station Details ID: 081049 Name: TATURA INST SUSTAINABLE AG Lat: -36.44 Lon: 145.27 Height: 114.0 m
Data from the previous 72 hours. | See also: Recent months at Tatura
Date/Time
EST
Temp
°C
App
Temp
°C
Dew
Point
°C
Rel
Hum
%
Delta-T
°C
Wind Press
QNH
hPa
Press
MSL
hPa
Rain since
9am
mm
Dir  Spd
km/h
Gust
km/h
Spd
kts
Gust
kts
30/04:30am 6.3 4.3 6.3 100 0.0 SSE 6 6 3 3 - - 0.0
30/04:00am 6.6 4.5 6.6 100 0.0 SSW 7 9 4 5 - - 0.0
30/03:30am 6.3 5.0 5.9 97 0.2 ESE 2 6 1 3 - - 0.0
30/03:00am 7.0 5.8 6.4 96 0.3 ESE 2 6 1 3 - - 0.0
30/02:30am 7.6 6.1 6.7 94 0.4 ENE 4 7 2 4 - - 0.0
30/02:00am 8.2 5.8 7.1 93 0.5 ENE 9 13 5 7 - - 0.0
30/01:30am 8.2 5.4 7.1 93 0.5 ENE 11 15 6 8 - - 0.0
30/01:00am 8.0 6.1 6.9 93 0.5 NE 6 11 3 6 - - 0.0
30/12:30am 8.5 6.2 7.4 93 0.5 NNE 9 13 5 7 - - 0.0
30/12:00am 8.1 5.4 7.3 95 0.4 ENE 11 15 6 8 - - 0.0
 
Date/Time
EST
Temp
°C
App
Temp
°C
Dew
Point
°C
Rel
Hum
%
Delta-T
°C
Wind Press
QNH
hPa
Press
MSL
hPa
Rain since
9am
mm
Dir  Spd
km/h
Gust
km/h
Spd
kts
Gust
kts
29/11:30pm 7.9 5.9 7.3 96 0.3 ENE 7 9 4 5 - - 0.0
29/11:00pm 7.4 5.9 6.8 96 0.3 ESE 4 7 2 4 - - 0.0
29/10:30pm 7.4 6.6 6.3 93 0.5 CALM 0 0 0 0 - - 0.0
29/10:00pm 7.9 5.5 6.8 93 0.5 E 9 11 5 6 - - 0.0
29/09:30pm 7.6 5.5 6.5 93 0.5 ENE 7 9 4 5 - - 0.0
29/09:00pm 7.7 6.4 6.2 90 0.7 ENE 2 6 1 3 - - 0.0
29/08:30pm 8.4 6.3 6.5 88 0.9 ENE 7 9 4 5 - - 0.0
29/08:00pm 8.3 5.4 6.4 88 0.9 ENE 11 17 6 9 - - 0.0
29/07:30pm 8.1 5.9 6.1 87 0.9 NNE 7 9 4 5 - - 0.0
29/07:00pm 8.1 5.8 5.9 86 1.0 ENE 7 9 4 5 - - 0.0
29/06:30pm 8.3 5.6 5.8 84 1.1 ENE 9 11 5 6 - - 0.0
29/06:00pm 8.6 6.0 5.9 83 1.2 ENE 9 11 5 6 - - 0.0
29/05:30pm 8.8 6.2 5.9 82 1.3 ENE 9 11 5 6 - - 0.0
29/05:00pm 9.0 6.9 5.7 80 1.5 NNE 6 7 3 4 - - 0.0
29/04:30pm 9.4 7.3 5.8 78 1.7 NNE 6 7 3 4 - - 0.0
29/04:00pm 9.6 7.3 5.6 76 1.8 NNE 7 11 4 6 - - 0.0
29/03:30pm 9.8 7.1 5.4 74 2.0 NE 9 13 5 7 - - 0.0
29/03:00pm 10.0 7.3 5.8 75 1.9 NE 9 15 5 8 - - 0.0
29/02:30pm 9.9 7.2 5.7 75 1.9 NE 9 17 5 9 - - 0.0
29/02:00pm 9.8 7.0 5.2 73 2.1 NNE 9 13 5 7 - - 0.0
29/01:30pm 10.0 7.3 5.6 74 2.0 NE 9 15 5 8 - - 0.0
29/01:00pm 9.5 6.0 5.3 75 1.9 NE 13 17 7 9 - - 0.0
29/12:30pm 8.9 5.2 4.7 75 1.9 NE 13 17 7 9 - - 0.0
29/12:00pm 9.1 5.9 5.1 76 1.8 N 11 17 6 9 - - 0.0
29/11:30am 8.7 5.0 4.5 75 1.9 NNE 13 17 7 9 - - 0.0
29/11:00am 8.8 4.4 4.6 75 1.9 NNE 17 24 9 13 - - 0.0
29/10:30am 8.5 4.7 5.6 82 1.3 NE 15 22 8 12 - - 0.0
29/10:00am 7.7 4.1 6.6 93 0.5 NE 15 20 8 11 - - 0.0
29/09:30am 6.3 3.0 6.3 100 0.0 NE 13 19 7 10 - - 0.0
29/09:00am 4.9 1.7 4.9 100 0.0 NE 11 15 6 8 - - 0.0
29/08:30am 4.1 0.7 4.1 100 0.0 ENE 11 15 6 8 - - 0.0
29/08:00am 3.2 0.0 3.2 100 0.0 ENE 9 13 5 7 - - 0.0
29/07:30am 2.3 -0.7 2.3 100 0.0 ENE 7 9 4 5 - - 0.0
29/07:00am 1.9 -1.1 1.9 100 0.0 E 7 9 4 5 - - 0.0
29/06:30am 1.8 0.1 1.8 100 0.0 CALM 0 0 0 0 - - 0.0
29/06:00am 1.7 0.0 1.7 100 0.0 CALM 0 0 0 0 - - 0.0
29/05:30am 1.9 0.2 1.9 100 0.0 CALM 0 0 0 0 - - 0.0
29/05:00am 2.0 0.3 2.0 100 0.0 CALM 0 0 0 0 - - 0.0
29/04:30am 2.2 -0.6 2.2 100 0.0 SSE 6 6 3 3 - - 0.0
29/04:00am 2.6 0.7 2.6 100 0.0 ENE 2 6 1 3 - - 0.0
29/03:30am 3.2 0.4 3.2 100 0.0 ENE 7 11 4 6 - - 0.0
29/03:00am 2.7 0.0 2.7 100 0.0 ENE 6 13 3 7 - - 0.0
29/02:30am 2.6 -0.3 2.6 100 0.0 E 7 11 4 6 - - 0.0
29/02:00am 3.4 -0.1 3.4 100 0.0 ENE 11 13 6 7 - - 0.0
29/01:30am 3.2 -0.7 3.2 100 0.0 ENE 13 15 7 8 - - 0.0
29/01:00am 2.0 -1.0 2.0 100 0.0 E 7 11 4 6 - - 0.0
29/12:30am 0.4 -1.5 0.4 100 0.0 CALM 0 0 0 0 - - 0.0
29/12:00am 0.9 -2.1 0.9 100 0.0 E 6 6 3 3 - - 0.0
 
Date/Time
EST
Temp
°C
App
Temp
°C
Dew
Point
°C
Rel
Hum
%
Delta-T
°C
Wind Press
QNH
hPa
Press
MSL
hPa
Rain since
9am
mm
Dir  Spd
km/h
Gust
km/h
Spd
kts
Gust
kts
28/11:30pm 1.4 -1.5 1.4 100 0.0 E 6 7 3 4 - - 0.0
28/11:00pm 1.1 -1.9 1.1 100 0.0 E 6 7 3 4 - - 0.0
28/10:30pm 1.4 -1.7 1.4 100 0.0 E 7 9 4 5 - - 0.0
28/10:00pm 1.3 -1.6 1.3 100 0.0 E 6 6 3 3 - - 0.0
28/09:30pm 1.8 -1.1 1.7 99 0.0 E 6 7 3 4 - - 0.0
28/09:00pm 1.6 -0.2 1.5 99 0.0 CALM 0 0 0 0 - - 0.0
28/08:30pm 3.0 0.2 2.9 99 0.0 E 7 9 4 5 - - 0.0
28/08:00pm 3.1 1.5 2.7 97 0.2 CALM 0 0 0 0 - - 0.0
28/07:30pm 3.6 2.1 2.9 95 0.3 CALM 0 0 0 0 - - 0.0
28/07:00pm 4.4 3.0 3.4 93 0.4 CALM 0 0 0 0 - - 0.0
28/06:30pm 5.1 3.7 3.6 90 0.6 CALM 0 6 0 3 - - 0.0
28/06:00pm 7.0 5.9 5.0 87 0.9 CALM 0 0 0 0 - - 0.0
28/05:30pm 8.2 5.8 4.4 77 1.7 NNE 6 7 3 4 - - 0.0
28/05:00pm 10.4 8.0 5.2 70 2.4 NNE 7 11 4 6 - - 0.0
28/04:30pm 11.1 7.6 5.6 69 2.6 NE 13 17 7 9 - - 0.0
28/04:00pm 11.6 8.2 5.7 67 2.8 NE 13 20 7 11 - - 0.0
28/03:30pm 11.7 8.2 5.6 66 2.8 NE 13 19 7 10 - - 0.0
28/03:00pm 12.1 9.3 5.3 63 3.2 NE 9 13 5 7 - - 0.0
28/02:30pm 12.1 9.5 5.9 66 2.9 NE 9 13 5 7 - - 0.0
28/02:00pm 12.0 9.5 6.7 70 2.5 N 9 11 5 6 - - 0.0
28/01:30pm 11.7 9.3 7.2 74 2.2 N 9 13 5 7 - - 0.0
28/01:00pm 11.3 8.8 6.6 73 2.2 NW 9 13 5 7 - - 0.0
28/12:30pm 10.8 8.3 6.6 75 2.0 NNE 9 13 5 7 - - 0.0
28/12:00pm 10.1 7.7 5.3 72 2.2 NNE 7 11 4 6 - - 0.0
28/11:30am 10.0 6.9 5.4 73 2.1 NNE 11 17 6 9 - - 0.0
28/11:00am 9.1 5.6 5.3 77 1.7 NE 13 15 7 8 - - 0.0
28/10:30am 7.8 4.3 5.4 85 1.1 ENE 13 15 7 8 - - 0.0
28/10:00am 7.0 4.1 6.4 96 0.3 ENE 11 15 6 8 - - 0.0
28/09:30am 5.1 2.3 5.1 100 0.0 E 9 13 5 7 - - 0.0
28/09:00am 3.4 0.3 3.4 100 0.0 E 9 13 5 7 - - 0.0
28/08:30am 1.6 -1.5 1.6 100 0.0 ESE 7 13 4 7 - - 0.0
28/08:00am -0.4 -2.4 -0.4 100 0.0 CALM 0 0 0 0 - - 0.0
28/07:30am -0.7 -2.8 -0.7 100 0.0 CALM 0 0 0 0 - - 0.0
28/07:00am -1.0 -3.1 -1.0 100 0.0 CALM 0 0 0 0 - - 0.0
28/06:30am -0.8 -2.9 -0.8 100 0.0 CALM 0 0 0 0 - - 0.0
28/06:00am -0.7 -2.8 -0.7 100 0.0 CALM 0 0 0 0 - - 0.0
28/05:30am -0.7 -3.5 -0.7 100 0.0 ESE 4 7 2 4 - - 0.0
28/05:00am -0.1 -3.2 -0.1 100 0.0 E 6 9 3 5 - - 0.0
28/04:30am 0.4 -1.5 0.4 100 0.0 CALM 0 0 0 0 - - 0.0
28/04:00am 0.3 -1.6 0.3 100 0.0 CALM 0 0 0 0 - - 0.0
28/03:30am 0.8 -2.4 0.8 100 0.0 SSE 7 7 4 4 - - 0.0
28/03:00am 1.6 -0.5 1.6 100 0.0 SSW 2 6 1 3 - - 0.0
28/02:30am 1.3 -1.8 1.3 100 0.0 SW 7 9 4 5 - - 0.0
28/02:00am 0.5 -2.8 0.4 99 0.0 SSW 7 7 4 4 - - 0.0
28/01:30am 2.2 -0.6 2.2 100 0.0 SSE 6 7 3 4 - - 0.0
28/01:00am 2.0 -1.0 1.9 99 0.0 S 7 9 4 5 - - 0.0
28/12:30am 2.4 0.0 2.3 99 0.0 S 4 7 2 4 - - 0.0
28/12:00am 3.9 1.4 3.8 99 0.0 S 6 7 3 4 - - 0.0
 
Date/Time
EST
Temp
°C
App
Temp
°C
Dew
Point
°C
Rel
Hum
%
Delta-T
°C
Wind Press
QNH
hPa
Press
MSL
hPa
Rain since
9am
mm
Dir  Spd
km/h
Gust
km/h
Spd
kts
Gust
kts
27/11:30pm 4.7 1.8 4.6 99 0.0 S 9 13 5 7 - - 0.0
27/11:00pm 4.4 1.8 4.0 97 0.2 SSE 7 9 4 5 - - 0.0
27/10:30pm 5.0 2.5 4.7 98 0.1 S 7 13 4 7 - - 0.0
27/10:00pm 5.1 1.9 5.1 100 0.0 SW 11 13 6 7 - - 0.0
27/09:30pm 3.8 0.7 3.5 98 0.1 SW 9 11 5 6 - - 0.0
27/09:00pm 4.6 2.1 4.5 99 0.0 SSW 7 9 4 5 - - 0.0
27/08:30pm 5.0 2.1 4.7 98 0.1 SW 9 9 5 5 - - 0.0
27/08:00pm 4.8 3.5 4.2 96 0.3 CALM 0 0 0 0 - - 0.0
27/07:30pm 5.0 3.6 3.8 92 0.5 CALM 0 0 0 0 - - 0.0
27/07:00pm 6.6 4.1 4.8 88 0.8 SSW 7 7 4 4 - - 0.0
27/06:30pm 8.3 6.0 5.6 83 1.2 S 7 9 4 5 - - 0.0
27/06:00pm 8.2 7.2 5.5 83 1.2 CALM 0 7 0 4 - - 0.0
27/05:30pm 9.1 8.0 5.3 77 1.7 CALM 0 0 0 0 - - 0.0
27/05:00pm 10.1 7.4 5.5 73 2.1 S 9 13 5 7 - - 0.0
27/04:30pm 10.9 8.2 5.4 69 2.5 S 9 13 5 7 - - 0.0
27/04:00pm 11.0 8.2 5.3 68 2.6 SSW 9 13 5 7 - - 0.0
27/03:30pm 11.0 7.4 5.1 67 2.7 SSW 13 17 7 9 - - 0.0
27/03:00pm 10.9 7.8 5.4 69 2.5 SW 11 15 6 8 - - 0.0
27/02:30pm 11.0 7.0 5.1 67 2.7 SW 15 20 8 11 - - 0.0
27/02:00pm 11.0 7.9 5.7 70 2.5 SSW 11 19 6 10 - - 0.0
27/01:30pm 10.9 7.4 5.4 69 2.5 SSW 13 22 7 12 - - 0.0
27/01:00pm 10.5 6.6 5.3 70 2.4 SSW 15 22 8 12 - - 0.0
27/12:30pm 10.4 7.3 5.6 72 2.2 SW 11 17 6 9 - - 0.0
27/12:00pm 9.8 6.2 5.2 73 2.1 WSW 13 19 7 10 - - 0.0
27/11:30am 9.9 6.8 5.7 75 1.9 SW 11 17 6 9 - - 0.0
27/11:00am 9.5 6.3 5.1 74 2.0 WSW 11 15 6 8 - - 0.0
27/10:30am 9.3 6.8 6.4 82 1.4 WSW 9 13 5 7 - - 0.0
27/10:00am 8.2 5.1 5.7 84 1.1 SW 11 15 6 8 - - 0.0
27/09:30am 7.0 4.2 5.0 87 0.9 SW 9 13 5 7 - - 0.0
27/09:00am 6.3 4.0 4.9 91 0.6 WSW 6 9 3 5 - - 4.6
27/08:30am 5.3 3.0 4.7 96 0.3 SE 6 9 3 5 - - 4.6
27/08:00am 3.4 0.2 3.1 98 0.1 WSW 9 13 5 7 - - 4.4
27/07:30am 3.4 0.8 3.0 97 0.2 SSW 6 9 3 5 - - 4.4
27/07:00am 3.5 0.3 2.9 96 0.2 SSW 9 11 5 6 - - 4.4
27/06:30am 3.7 0.5 3.0 95 0.3 SSW 9 11 5 6 - - 4.4
27/06:00am 4.0 0.8 3.3 95 0.3 SW 9 13 5 7 - - 4.4
27/05:30am 4.5 1.1 3.9 96 0.3 SSW 11 17 6 9 - - 4.4
27/05:00am 3.9 0.8 3.8 99 0.0 SW 9 15 5 8 - - 4.4

Other formats

Comma delimited format used in spreadsheet applications
http://www.bom.gov.au/fwo/IDV60801/IDV60801.95836.axf

JavaScript Object Notation format (JSON) in row-major order
http://www.bom.gov.au/fwo/IDV60801/IDV60801.95836.json

Data quality

Most of these data are generated automatically and are frequently updated. Quality checks on data are not normally performed. It is possible for incorrect values to appear. Refer to information at About Latest Weather Observations and please check the disclaimer before using these data.